ePrivacy and GPDR Cookie Consent by Cookie Consent
EmailTwitter


Observations de surface / France / LFPO (07149)

Régions: Québec | Canada | États-Unis | Europe | France | UK | Ailleurs
Station
Affichage
Infos & localisation pour LFPO (07149) | Aide pour décoder les METARs

Observations prises le 2021-06-21 à 23H00 UTC à PARIS/ORLY, FR (LFPO)

Température: 16.0 Celsius

Point de rosée: 14.0 Celsius

Humidité relative: 88%

Vents: Nord à 9 km/h ou 5 noeuds.

Pression au niveau moyen de la mer: 101.00 kilopascals.

Observation METAR:

LFPO 212300Z 35005KT 310V020 CAVOK 16/14 Q1010 TEMPO SCT050CB=